sensor_id;sensor_type;location;lat;lon;timestamp;pressure;altitude;pressure_sealevel;temperature;humidity
46464;BME280;32161;48.148;-1.554;2022-07-29T00:01:50;100931.13;;;21.63;65.21
46464;BME280;32161;48.148;-1.554;2022-07-29T00:04:18;100933.59;;;21.64;65.41
46464;BME280;32161;48.148;-1.554;2022-07-29T00:06:47;100932.97;;;21.67;65.59
46464;BME280;32161;48.148;-1.554;2022-07-29T00:09:15;100921.41;;;21.65;64.79
46464;BME280;32161;48.148;-1.554;2022-07-29T00:11:42;100926.94;;;21.65;65.02
46464;BME280;32161;48.148;-1.554;2022-07-29T00:14:10;100922.22;;;21.66;65.15
46464;BME280;32161;48.148;-1.554;2022-07-29T00:16:38;100924.75;;;21.62;64.99
46464;BME280;32161;48.148;-1.554;2022-07-29T00:19:05;100923.63;;;21.63;65.12
46464;BME280;32161;48.148;-1.554;2022-07-29T00:21:33;100919.22;;;21.62;64.34
46464;BME280;32161;48.148;-1.554;2022-07-29T00:24:02;100921.50;;;21.60;64.39
46464;BME280;32161;48.148;-1.554;2022-07-29T00:26:30;100916.47;;;21.62;64.14
46464;BME280;32161;48.148;-1.554;2022-07-29T00:28:59;100905.41;;;21.62;64.37
46464;BME280;32161;48.148;-1.554;2022-07-29T00:31:26;100907.22;;;21.53;63.90
46464;BME280;32161;48.148;-1.554;2022-07-29T00:33:54;100900.09;;;21.47;64.32
46464;BME280;32161;48.148;-1.554;2022-07-29T00:36:22;100908.63;;;21.51;64.18
46464;BME280;32161;48.148;-1.554;2022-07-29T00:38:50;100903.41;;;21.49;63.87
46464;BME280;32161;48.148;-1.554;2022-07-29T00:41:19;100905.53;;;21.52;63.54
46464;BME280;32161;48.148;-1.554;2022-07-29T00:43:47;100901.13;;;21.51;63.42
46464;BME280;32161;48.148;-1.554;2022-07-29T00:46:14;100901.13;;;21.51;63.13
46464;BME280;32161;48.148;-1.554;2022-07-29T00:48:42;100911.47;;;21.45;62.92
46464;BME280;32161;48.148;-1.554;2022-07-29T00:51:10;100900.09;;;21.47;62.95
46464;BME280;32161;48.148;-1.554;2022-07-29T00:53:38;100894.66;;;21.42;62.48
46464;BME280;32161;48.148;-1.554;2022-07-29T00:56:06;100888.34;;;21.36;62.25
46464;BME280;32161;48.148;-1.554;2022-07-29T00:58:35;100888.53;;;21.45;62.53
46464;BME280;32161;48.148;-1.554;2022-07-29T01:01:02;100891.22;;;21.50;61.88
46464;BME280;32161;48.148;-1.554;2022-07-29T01:03:30;100891.72;;;21.52;62.13
46464;BME280;32161;48.148;-1.554;2022-07-29T01:05:58;100891.53;;;21.49;62.13
46464;BME280;32161;48.148;-1.554;2022-07-29T01:08:26;100897.88;;;21.49;62.21
46464;BME280;32161;48.148;-1.554;2022-07-29T01:10:54;100891.81;;;21.47;62.16
46464;BME280;32161;48.148;-1.554;2022-07-29T01:13:22;100897.88;;;21.49;62.00
46464;BME280;32161;48.148;-1.554;2022-07-29T01:15:58;100886.34;;;21.42;62.06
46464;BME280;32161;48.148;-1.554;2022-07-29T01:18:33;100880.47;;;21.49;61.77
46464;BME280;32161;48.148;-1.554;2022-07-29T01:21:33;100880.50;;;21.43;62.32
46464;BME280;32161;48.148;-1.554;2022-07-29T01:24:19;100881.56;;;21.48;61.82
46464;BME280;32161;48.148;-1.554;2022-07-29T01:26:55;100880.47;;;21.49;61.43
46464;BME280;32161;48.148;-1.554;2022-07-29T01:29:28;100878.34;;;21.40;61.06
46464;BME280;32161;48.148;-1.554;2022-07-29T01:32:01;100883.81;;;21.45;60.51
46464;BME280;32161;48.148;-1.554;2022-07-29T01:34:35;100883.69;;;21.32;60.91
46464;BME280;32161;48.148;-1.554;2022-07-29T01:37:13;100882.81;;;21.36;60.85
46464;BME280;32161;48.148;-1.554;2022-07-29T01:39:43;100874.47;;;21.41;61.34
46464;BME280;32161;48.148;-1.554;2022-07-29T01:42:24;100881.19;;;21.35;60.71
46464;BME280;32161;48.148;-1.554;2022-07-29T01:44:59;100876.19;;;21.37;60.43
46464;BME280;32161;48.148;-1.554;2022-07-29T01:47:34;100876.72;;;21.39;61.00
46464;BME280;32161;48.148;-1.554;2022-07-29T01:50:10;100878.06;;;21.42;60.93
46464;BME280;32161;48.148;-1.554;2022-07-29T01:52:49;100874.97;;;21.43;60.87
46464;BME280;32161;48.148;-1.554;2022-07-29T01:55:18;100876.94;;;21.43;59.70
46464;BME280;32161;48.148;-1.554;2022-07-29T01:57:49;100870.66;;;21.37;60.16
46464;BME280;32161;48.148;-1.554;2022-07-29T02:00:18;100879.38;;;21.26;60.65
46464;BME280;32161;48.148;-1.554;2022-07-29T02:02:48;100874.06;;;21.29;60.35
46464;BME280;32161;48.148;-1.554;2022-07-29T02:05:20;100880.69;;;21.33;60.23
46464;BME280;32161;48.148;-1.554;2022-07-29T02:07:50;100882.00;;;21.36;59.46
46464;BME280;32161;48.148;-1.554;2022-07-29T02:10:27;100885.66;;;21.31;60.59
46464;BME280;32161;48.148;-1.554;2022-07-29T02:12:56;100883.13;;;21.35;59.82
46464;BME280;32161;48.148;-1.554;2022-07-29T02:15:29;100883.28;;;21.43;60.09
46464;BME280;32161;48.148;-1.554;2022-07-29T02:18:02;100886.03;;;21.43;60.19
46464;BME280;32161;48.148;-1.554;2022-07-29T02:20:32;100890.06;;;21.51;60.14
46464;BME280;32161;48.148;-1.554;2022-07-29T02:23:01;100890.03;;;21.56;59.96
46464;BME280;32161;48.148;-1.554;2022-07-29T02:25:30;100894.41;;;21.57;59.97
46464;BME280;32161;48.148;-1.554;2022-07-29T02:27:59;100894.09;;;21.59;59.99
46464;BME280;32161;48.148;-1.554;2022-07-29T02:30:29;100883.88;;;21.59;60.68
46464;BME280;32161;48.148;-1.554;2022-07-29T02:32:58;100894.66;;;21.61;59.76
46464;BME280;32161;48.148;-1.554;2022-07-29T02:35:27;100893.81;;;21.60;59.92
46464;BME280;32161;48.148;-1.554;2022-07-29T02:37:55;100886.94;;;21.58;60.09
46464;BME280;32161;48.148;-1.554;2022-07-29T02:40:42;100884.50;;;21.56;59.69
46464;BME280;32161;48.148;-1.554;2022-07-29T02:43:11;100883.56;;;21.61;60.37
46464;BME280;32161;48.148;-1.554;2022-07-29T02:45:40;100893.50;;;21.62;60.07
46464;BME280;32161;48.148;-1.554;2022-07-29T02:48:14;100884.41;;;21.61;60.21
46464;BME280;32161;48.148;-1.554;2022-07-29T02:50:49;100884.50;;;21.56;59.81
46464;BME280;32161;48.148;-1.554;2022-07-29T02:53:22;100886.94;;;21.58;60.16
46464;BME280;32161;48.148;-1.554;2022-07-29T02:55:57;100887.75;;;21.58;60.15
46464;BME280;32161;48.148;-1.554;2022-07-29T02:58:29;100886.94;;;21.58;60.04
46464;BME280;32161;48.148;-1.554;2022-07-29T03:01:02;100899.41;;;21.55;60.20
46464;BME280;32161;48.148;-1.554;2022-07-29T03:03:34;100892.63;;;21.48;60.77
46464;BME280;32161;48.148;-1.554;2022-07-29T03:06:04;100901.00;;;21.42;60.87
46464;BME280;32161;48.148;-1.554;2022-07-29T03:08:34;100905.25;;;21.35;61.01
46464;BME280;32161;48.148;-1.554;2022-07-29T03:11:04;100898.19;;;21.24;60.80
46464;BME280;32161;48.148;-1.554;2022-07-29T03:13:32;100900.16;;;21.23;60.69
46464;BME280;32161;48.148;-1.554;2022-07-29T03:16:02;100894.63;;;21.23;61.17
46464;BME280;32161;48.148;-1.554;2022-07-29T03:18:31;100898.75;;;21.26;61.29
46464;BME280;32161;48.148;-1.554;2022-07-29T03:20:59;100890.72;;;21.24;61.08
46464;BME280;32161;48.148;-1.554;2022-07-29T03:23:26;100896.56;;;21.23;61.13
46464;BME280;32161;48.148;-1.554;2022-07-29T03:25:55;100889.91;;;21.24;61.11
46464;BME280;32161;48.148;-1.554;2022-07-29T03:28:23;100902.53;;;21.30;61.21
46464;BME280;32161;48.148;-1.554;2022-07-29T03:30:53;100897.03;;;21.30;61.26
46464;BME280;32161;48.148;-1.554;2022-07-29T03:33:22;100896.16;;;21.29;61.35
46464;BME280;32161;48.148;-1.554;2022-07-29T03:35:50;100897.53;;;21.32;62.08
46464;BME280;32161;48.148;-1.554;2022-07-29T03:38:17;100897.28;;;21.33;62.08
46464;BME280;32161;48.148;-1.554;2022-07-29T03:40:54;100893.66;;;21.33;61.38
46464;BME280;32161;48.148;-1.554;2022-07-29T03:43:23;100898.66;;;21.31;61.36
46464;BME280;32161;48.148;-1.554;2022-07-29T03:45:54;100901.97;;;21.33;62.18
46464;BME280;32161;48.148;-1.554;2022-07-29T03:48:24;100906.63;;;21.32;62.52
46464;BME280;32161;48.148;-1.554;2022-07-29T03:50:56;100908.91;;;21.30;62.80
46464;BME280;32161;48.148;-1.554;2022-07-29T03:53:23;100903.97;;;21.27;62.47
46464;BME280;32161;48.148;-1.554;2022-07-29T03:55:56;100901.63;;;21.15;62.10
46464;BME280;32161;48.148;-1.554;2022-07-29T03:58:27;100904.47;;;21.10;61.72
46464;BME280;32161;48.148;-1.554;2022-07-29T04:00:55;100908.88;;;21.11;62.19
46464;BME280;32161;48.148;-1.554;2022-07-29T04:03:25;100897.28;;;21.09;62.87
46464;BME280;32161;48.148;-1.554;2022-07-29T04:06:01;100896.78;;;21.07;62.26
46464;BME280;32161;48.148;-1.554;2022-07-29T04:08:29;100896.31;;;21.00;63.06
46464;BME280;32161;48.148;-1.554;2022-07-29T04:10:56;100908.25;;;20.95;63.31
46464;BME280;32161;48.148;-1.554;2022-07-29T04:13:24;100908.53;;;20.94;63.16
46464;BME280;32161;48.148;-1.554;2022-07-29T04:15:52;100906.59;;;20.94;63.75
46464;BME280;32161;48.148;-1.554;2022-07-29T04:18:19;100911.31;;;20.94;63.66
46464;BME280;32161;48.148;-1.554;2022-07-29T04:20:48;100910.47;;;20.93;63.50
46464;BME280;32161;48.148;-1.554;2022-07-29T04:23:16;100916.91;;;20.89;63.78
46464;BME280;32161;48.148;-1.554;2022-07-29T04:25:44;100910.84;;;20.87;63.79
46464;BME280;32161;48.148;-1.554;2022-07-29T04:28:11;100916.34;;;20.87;64.33
46464;BME280;32161;48.148;-1.554;2022-07-29T04:30:39;100921.38;;;20.85;63.92
46464;BME280;32161;48.148;-1.554;2022-07-29T04:33:08;100915.31;;;20.83;64.10
46464;BME280;32161;48.148;-1.554;2022-07-29T04:35:37;100922.53;;;20.79;64.23
46464;BME280;32161;48.148;-1.554;2022-07-29T04:38:07;100914.25;;;20.79;64.06
46464;BME280;32161;48.148;-1.554;2022-07-29T04:40:34;100907.31;;;20.81;64.42
46464;BME280;32161;48.148;-1.554;2022-07-29T04:43:02;100910.09;;;20.81;64.60
46464;BME280;32161;48.148;-1.554;2022-07-29T04:45:30;100915.38;;;20.78;64.19
46464;BME280;32161;48.148;-1.554;2022-07-29T04:47:57;100916.50;;;20.77;64.50
46464;BME280;32161;48.148;-1.554;2022-07-29T04:50:25;100908.78;;;20.73;64.65
46464;BME280;32161;48.148;-1.554;2022-07-29T04:52:53;100903.84;;;20.70;64.73
46464;BME280;32161;48.148;-1.554;2022-07-29T04:55:22;100906.34;;;20.72;64.47
46464;BME280;32161;48.148;-1.554;2022-07-29T04:57:49;100913.78;;;20.71;64.50
46464;BME280;32161;48.148;-1.554;2022-07-29T05:00:17;100922.06;;;20.71;64.88
46464;BME280;32161;48.148;-1.554;2022-07-29T05:02:45;100917.66;;;20.70;65.65
46464;BME280;32161;48.148;-1.554;2022-07-29T05:05:13;100926.53;;;20.67;65.63
46464;BME280;32161;48.148;-1.554;2022-07-29T05:07:40;100930.72;;;20.65;65.63
46464;BME280;32161;48.148;-1.554;2022-07-29T05:10:09;100928.53;;;20.62;65.38
46464;BME280;32161;48.148;-1.554;2022-07-29T05:12:39;100923.25;;;20.65;65.71
46464;BME280;32161;48.148;-1.554;2022-07-29T05:15:08;100932.59;;;20.69;65.37
46464;BME280;32161;48.148;-1.554;2022-07-29T05:17:36;100932.84;;;20.73;65.71
46464;BME280;32161;48.148;-1.554;2022-07-29T05:20:05;100944.94;;;20.77;65.98
46464;BME280;32161;48.148;-1.554;2022-07-29T05:22:33;100943.25;;;20.81;66.35
46464;BME280;32161;48.148;-1.554;2022-07-29T05:25:00;100946.81;;;20.82;66.13
46464;BME280;32161;48.148;-1.554;2022-07-29T05:27:28;100952.34;;;20.82;66.20
46464;BME280;32161;48.148;-1.554;2022-07-29T05:29:57;100951.22;;;20.83;65.76
46464;BME280;32161;48.148;-1.554;2022-07-29T05:32:25;100945.13;;;20.86;65.87
46464;BME280;32161;48.148;-1.554;2022-07-29T05:34:53;100940.63;;;20.90;66.73
46464;BME280;32161;48.148;-1.554;2022-07-29T05:37:20;100948.94;;;20.90;65.29
46464;BME280;32161;48.148;-1.554;2022-07-29T05:39:48;100953.88;;;20.93;65.88
46464;BME280;32161;48.148;-1.554;2022-07-29T05:42:16;100947.19;;;20.99;64.70
46464;BME280;32161;48.148;-1.554;2022-07-29T05:44:43;100963.38;;;21.06;64.70
46464;BME280;32161;48.148;-1.554;2022-07-29T05:47:13;100959.69;;;21.15;65.54
46464;BME280;32161;48.148;-1.554;2022-07-29T05:49:40;100953.81;;;21.22;65.51
46464;BME280;32161;48.148;-1.554;2022-07-29T05:52:08;100955.94;;;21.25;66.03
46464;BME280;32161;48.148;-1.554;2022-07-29T05:54:36;100953.97;;;21.31;65.88
46464;BME280;32161;48.148;-1.554;2022-07-29T05:57:04;100959.97;;;21.38;65.98
46464;BME280;32161;48.148;-1.554;2022-07-29T05:59:34;100963.25;;;21.40;66.00
46464;BME280;32161;48.148;-1.554;2022-07-29T06:02:02;100970.88;;;21.48;64.91
46464;BME280;32161;48.148;-1.554;2022-07-29T06:04:32;100980.44;;;21.56;64.53
46464;BME280;32161;48.148;-1.554;2022-07-29T06:07:00;100974.06;;;21.60;64.88
46464;BME280;32161;48.148;-1.554;2022-07-29T06:09:28;100976.97;;;21.69;63.85
46464;BME280;32161;48.148;-1.554;2022-07-29T06:11:56;100972.16;;;21.75;64.97
46464;BME280;32161;48.148;-1.554;2022-07-29T06:14:24;100979.50;;;21.84;64.13
46464;BME280;32161;48.148;-1.554;2022-07-29T06:16:52;100975.81;;;21.89;63.73
46464;BME280;32161;48.148;-1.554;2022-07-29T06:19:20;100974.63;;;21.95;63.17
46464;BME280;32161;48.148;-1.554;2022-07-29T06:21:49;100977.91;;;21.97;63.36
46464;BME280;32161;48.148;-1.554;2022-07-29T06:24:17;100976.78;;;21.98;61.68
46464;BME280;32161;48.148;-1.554;2022-07-29T06:26:45;100977.47;;;21.90;61.36
46464;BME280;32161;48.148;-1.554;2022-07-29T06:29:12;100984.03;;;21.94;62.92
46464;BME280;32161;48.148;-1.554;2022-07-29T06:31:40;100983.06;;;22.04;62.21
46464;BME280;32161;48.148;-1.554;2022-07-29T06:34:08;100986.78;;;22.13;62.53
46464;BME280;32161;48.148;-1.554;2022-07-29T06:36:36;100984.19;;;22.22;63.28
46464;BME280;32161;48.148;-1.554;2022-07-29T06:39:06;100985.13;;;22.31;63.30
46464;BME280;32161;48.148;-1.554;2022-07-29T06:41:35;100977.28;;;22.38;62.97
46464;BME280;32161;48.148;-1.554;2022-07-29T06:44:03;100981.56;;;22.44;63.20
46464;BME280;32161;48.148;-1.554;2022-07-29T06:46:31;100989.81;;;22.49;62.37
46464;BME280;32161;48.148;-1.554;2022-07-29T06:48:59;100991.66;;;22.54;62.52
46464;BME280;32161;48.148;-1.554;2022-07-29T06:51:27;100988.78;;;22.59;60.96
46464;BME280;32161;48.148;-1.554;2022-07-29T06:53:55;100993.13;;;22.65;60.19
46464;BME280;32161;48.148;-1.554;2022-07-29T06:56:25;100998.28;;;22.72;59.81
46464;BME280;32161;48.148;-1.554;2022-07-29T06:58:52;100997.03;;;22.78;59.15
46464;BME280;32161;48.148;-1.554;2022-07-29T07:01:20;100991.38;;;22.83;58.68
46464;BME280;32161;48.148;-1.554;2022-07-29T07:03:48;100997.09;;;22.92;57.02
46464;BME280;32161;48.148;-1.554;2022-07-29T07:06:15;100994.41;;;23.00;57.14
46464;BME280;32161;48.148;-1.554;2022-07-29T07:08:43;101003.44;;;23.06;56.78
46464;BME280;32161;48.148;-1.554;2022-07-29T07:11:10;100999.97;;;23.14;56.43
46464;BME280;32161;48.148;-1.554;2022-07-29T07:13:39;101001.69;;;23.24;56.48
46464;BME280;32161;48.148;-1.554;2022-07-29T07:16:07;101007.84;;;23.34;55.90
46464;BME280;32161;48.148;-1.554;2022-07-29T07:18:35;101013.00;;;23.41;55.86
46464;BME280;32161;48.148;-1.554;2022-07-29T07:21:02;101013.38;;;23.48;55.79
46464;BME280;32161;48.148;-1.554;2022-07-29T07:23:31;101023.75;;;23.70;54.50
46464;BME280;32161;48.148;-1.554;2022-07-29T07:25:58;101020.97;;;23.70;54.88
46464;BME280;32161;48.148;-1.554;2022-07-29T07:28:26;101027.13;;;23.81;54.43
46464;BME280;32161;48.148;-1.554;2022-07-29T07:30:55;101019.06;;;23.93;54.38
46464;BME280;32161;48.148;-1.554;2022-07-29T07:33:22;101018.94;;;23.98;54.85
46464;BME280;32161;48.148;-1.554;2022-07-29T07:35:50;101019.03;;;24.07;54.86
46464;BME280;32161;48.148;-1.554;2022-07-29T07:38:18;101013.53;;;24.16;54.80
46464;BME280;32161;48.148;-1.554;2022-07-29T07:40:46;101016.19;;;24.21;55.05
46464;BME280;32161;48.148;-1.554;2022-07-29T07:43:13;101022.63;;;24.30;54.96
46464;BME280;32161;48.148;-1.554;2022-07-29T07:45:41;101021.88;;;24.38;55.01
46464;BME280;32161;48.148;-1.554;2022-07-29T07:48:10;101021.81;;;24.52;54.89
46464;BME280;32161;48.148;-1.554;2022-07-29T07:50:38;101029.06;;;24.62;55.03
46464;BME280;32161;48.148;-1.554;2022-07-29T07:53:05;101028.50;;;24.73;54.96
46464;BME280;32161;48.148;-1.554;2022-07-29T07:55:33;101028.53;;;24.82;54.43
46464;BME280;32161;48.148;-1.554;2022-07-29T07:58:00;101041.16;;;24.88;54.49
46464;BME280;32161;48.148;-1.554;2022-07-29T08:00:28;101040.81;;;24.90;53.86
46464;BME280;32161;48.148;-1.554;2022-07-29T08:02:56;101048.53;;;24.93;54.06
46464;BME280;32161;48.148;-1.554;2022-07-29T08:05:25;101046.13;;;25.00;54.14
46464;BME280;32161;48.148;-1.554;2022-07-29T08:07:52;101055.03;;;25.11;53.92
46464;BME280;32161;48.148;-1.554;2022-07-29T08:10:20;101056.16;;;25.09;53.75
46464;BME280;32161;48.148;-1.554;2022-07-29T08:13:03;101048.19;;;25.17;54.38
46464;BME280;32161;48.148;-1.554;2022-07-29T08:15:30;101049.06;;;25.26;53.88
46464;BME280;32161;48.148;-1.554;2022-07-29T08:17:58;101052.50;;;25.31;53.28
46464;BME280;32161;48.148;-1.554;2022-07-29T08:20:27;101058.06;;;25.40;52.93
46464;BME280;32161;48.148;-1.554;2022-07-29T08:22:55;101045.16;;;25.44;53.48
46464;BME280;32161;48.148;-1.554;2022-07-29T08:25:23;101060.25;;;25.52;54.03
46464;BME280;32161;48.148;-1.554;2022-07-29T08:27:51;101059.59;;;25.55;53.74
46464;BME280;32161;48.148;-1.554;2022-07-29T08:30:18;101066.50;;;25.57;52.57
46464;BME280;32161;48.148;-1.554;2022-07-29T08:32:48;101062.56;;;25.58;52.96
46464;BME280;32161;48.148;-1.554;2022-07-29T08:35:19;101063.41;;;25.68;52.83
46464;BME280;32161;48.148;-1.554;2022-07-29T08:37:48;101051.75;;;25.66;53.10
46464;BME280;32161;48.148;-1.554;2022-07-29T08:40:16;101063.19;;;25.55;53.23
46464;BME280;32161;48.148;-1.554;2022-07-29T08:42:43;101066.78;;;25.56;53.47
46464;BME280;32161;48.148;-1.554;2022-07-29T08:45:11;101064.34;;;25.63;53.73
46464;BME280;32161;48.148;-1.554;2022-07-29T08:47:39;101068.13;;;25.67;53.01
46464;BME280;32161;48.148;-1.554;2022-07-29T08:50:08;101063.56;;;25.71;53.46
46464;BME280;32161;48.148;-1.554;2022-07-29T08:52:39;101069.50;;;25.78;53.60
46464;BME280;32161;48.148;-1.554;2022-07-29T08:55:09;101074.44;;;25.81;53.67
46464;BME280;32161;48.148;-1.554;2022-07-29T08:57:39;101082.31;;;25.88;52.98
46464;BME280;32161;48.148;-1.554;2022-07-29T09:00:08;101078.53;;;25.84;53.57
46464;BME280;32161;48.148;-1.554;2022-07-29T09:02:41;101077.22;;;25.90;52.92
46464;BME280;32161;48.148;-1.554;2022-07-29T09:05:12;101076.75;;;25.88;53.74
46464;BME280;32161;48.148;-1.554;2022-07-29T09:07:40;101085.75;;;25.94;52.80
46464;BME280;32161;48.148;-1.554;2022-07-29T09:10:11;101079.53;;;25.88;53.11
46464;BME280;32161;48.148;-1.554;2022-07-29T09:12:39;101082.66;;;25.95;53.36
46464;BME280;32161;48.148;-1.554;2022-07-29T09:15:08;101083.13;;;25.97;53.52
46464;BME280;32161;48.148;-1.554;2022-07-29T09:17:43;101088.22;;;25.95;53.13
46464;BME280;32161;48.148;-1.554;2022-07-29T09:20:14;101091.34;;;26.02;52.75
46464;BME280;32161;48.148;-1.554;2022-07-29T09:22:42;101079.03;;;26.12;53.18
46464;BME280;32161;48.148;-1.554;2022-07-29T09:25:13;101089.19;;;26.17;53.59
46464;BME280;32161;48.148;-1.554;2022-07-29T09:27:41;101090.53;;;26.28;52.27
46464;BME280;32161;48.148;-1.554;2022-07-29T09:30:13;101093.13;;;26.24;51.07
46464;BME280;32161;48.148;-1.554;2022-07-29T09:33:02;101089.34;;;25.94;51.55
46464;BME280;32161;48.148;-1.554;2022-07-29T09:35:31;101099.19;;;26.00;52.74
46464;BME280;32161;48.148;-1.554;2022-07-29T09:38:10;101102.16;;;26.13;52.56
46464;BME280;32161;48.148;-1.554;2022-07-29T09:40:40;101103.63;;;26.27;52.78
46464;BME280;32161;48.148;-1.554;2022-07-29T09:43:13;101091.34;;;26.37;52.71
46464;BME280;32161;48.148;-1.554;2022-07-29T09:45:41;101090.38;;;26.50;52.11
46464;BME280;32161;48.148;-1.554;2022-07-29T09:48:16;101089.72;;;26.62;51.93
46464;BME280;32161;48.148;-1.554;2022-07-29T09:50:46;101098.56;;;26.73;51.89
46464;BME280;32161;48.148;-1.554;2022-07-29T09:53:31;101093.44;;;26.84;52.22
46464;BME280;32161;48.148;-1.554;2022-07-29T09:56:01;101099.00;;;26.92;52.28
46464;BME280;32161;48.148;-1.554;2022-07-29T09:58:29;101098.47;;;27.08;51.27
46464;BME280;32161;48.148;-1.554;2022-07-29T10:00:57;101091.59;;;27.14;52.24
46464;BME280;32161;48.148;-1.554;2022-07-29T10:03:25;101088.75;;;27.22;51.45
46464;BME280;32161;48.148;-1.554;2022-07-29T10:06:10;101095.25;;;27.35;50.65
46464;BME280;32161;48.148;-1.554;2022-07-29T10:08:39;101097.03;;;27.48;50.95
46464;BME280;32161;48.148;-1.554;2022-07-29T10:11:14;101098.41;;;27.63;49.71
46464;BME280;32161;48.148;-1.554;2022-07-29T10:13:45;101099.25;;;27.64;50.04
46464;BME280;32161;48.148;-1.554;2022-07-29T10:16:15;101105.75;;;27.77;49.93
46464;BME280;32161;48.148;-1.554;2022-07-29T10:18:44;101101.88;;;27.90;49.77
46464;BME280;32161;48.148;-1.554;2022-07-29T10:21:13;101103.25;;;28.05;49.75
46464;BME280;32161;48.148;-1.554;2022-07-29T10:23:41;101102.38;;;28.13;48.59
46464;BME280;32161;48.148;-1.554;2022-07-29T10:26:12;101100.53;;;28.17;48.11
46464;BME280;32161;48.148;-1.554;2022-07-29T10:28:40;101105.88;;;28.10;48.61
46464;BME280;32161;48.148;-1.554;2022-07-29T10:31:15;101099.56;;;28.13;49.92
46464;BME280;32161;48.148;-1.554;2022-07-29T10:33:55;101108.66;;;28.31;49.89
46464;BME280;32161;48.148;-1.554;2022-07-29T10:36:42;101106.56;;;28.49;49.58
46464;BME280;32161;48.148;-1.554;2022-07-29T10:39:27;101108.00;;;28.67;47.18
46464;BME280;32161;48.148;-1.554;2022-07-29T10:42:13;101110.47;;;28.68;47.06
46464;BME280;32161;48.148;-1.554;2022-07-29T10:44:44;101104.78;;;28.44;47.90
46464;BME280;32161;48.148;-1.554;2022-07-29T10:47:21;101115.16;;;28.43;48.22
46464;BME280;32161;48.148;-1.554;2022-07-29T10:49:59;101112.53;;;28.59;48.26
46464;BME280;32161;48.148;-1.554;2022-07-29T10:52:54;101115.06;;;28.85;48.20
46464;BME280;32161;48.148;-1.554;2022-07-29T10:55:35;101120.97;;;29.05;48.31
46464;BME280;32161;48.148;-1.554;2022-07-29T10:58:18;101116.25;;;29.17;46.50
46464;BME280;32161;48.148;-1.554;2022-07-29T11:00:47;101115.44;;;29.29;46.28
46464;BME280;32161;48.148;-1.554;2022-07-29T11:03:43;101109.34;;;29.27;45.49
46464;BME280;32161;48.148;-1.554;2022-07-29T11:06:13;101105.88;;;29.30;46.25
46464;BME280;32161;48.148;-1.554;2022-07-29T11:08:41;101117.75;;;29.39;46.64
46464;BME280;32161;48.148;-1.554;2022-07-29T11:11:35;101112.16;;;29.52;45.33
46464;BME280;32161;48.148;-1.554;2022-07-29T11:14:08;101113.59;;;29.58;45.66
46464;BME280;32161;48.148;-1.554;2022-07-29T11:17:02;101110.53;;;29.51;46.53
46464;BME280;32161;48.148;-1.554;2022-07-29T11:19:30;101113.94;;;29.56;45.25
46464;BME280;32161;48.148;-1.554;2022-07-29T11:21:58;101101.72;;;29.61;45.65
46464;BME280;32161;48.148;-1.554;2022-07-29T11:24:28;101114.41;;;29.71;45.34
46464;BME280;32161;48.148;-1.554;2022-07-29T11:27:16;101110.34;;;29.68;44.94
46464;BME280;32161;48.148;-1.554;2022-07-29T11:29:54;101112.19;;;29.76;45.47
46464;BME280;32161;48.148;-1.554;2022-07-29T11:32:25;101115.47;;;29.90;45.89
46464;BME280;32161;48.148;-1.554;2022-07-29T11:35:17;101124.88;;;30.10;45.32
46464;BME280;32161;48.148;-1.554;2022-07-29T11:37:47;101115.75;;;30.13;45.77
46464;BME280;32161;48.148;-1.554;2022-07-29T11:40:34;101103.09;;;30.32;44.35
46464;BME280;32161;48.148;-1.554;2022-07-29T11:43:02;101107.44;;;30.29;43.77
46464;BME280;32161;48.148;-1.554;2022-07-29T11:45:47;101112.22;;;30.29;43.79
46464;BME280;32161;48.148;-1.554;2022-07-29T11:48:19;101107.56;;;30.33;44.92
46464;BME280;32161;48.148;-1.554;2022-07-29T11:50:46;101116.41;;;30.35;44.56
46464;BME280;32161;48.148;-1.554;2022-07-29T11:53:14;101109.13;;;30.46;43.77
46464;BME280;32161;48.148;-1.554;2022-07-29T11:55:42;101107.50;;;30.45;43.13
46464;BME280;32161;48.148;-1.554;2022-07-29T11:58:10;101111.06;;;30.58;44.39
46464;BME280;32161;48.148;-1.554;2022-07-29T12:00:40;101105.66;;;30.65;44.95
46464;BME280;32161;48.148;-1.554;2022-07-29T12:03:10;101104.91;;;30.80;44.02
46464;BME280;32161;48.148;-1.554;2022-07-29T12:05:42;101105.22;;;31.07;44.50
46464;BME280;32161;48.148;-1.554;2022-07-29T12:08:15;101106.53;;;31.41;43.18
46464;BME280;32161;48.148;-1.554;2022-07-29T12:10:46;101113.94;;;31.65;43.19
46464;BME280;32161;48.148;-1.554;2022-07-29T12:13:15;101111.09;;;31.81;42.85
46464;BME280;32161;48.148;-1.554;2022-07-29T12:16:02;101108.25;;;31.97;41.80
46464;BME280;32161;48.148;-1.554;2022-07-29T12:18:31;101112.59;;;32.10;41.46
46464;BME280;32161;48.148;-1.554;2022-07-29T12:21:01;101100.81;;;32.24;40.98
46464;BME280;32161;48.148;-1.554;2022-07-29T12:23:30;101104.47;;;32.44;40.78
46464;BME280;32161;48.148;-1.554;2022-07-29T12:25:58;101113.00;;;32.47;40.61
46464;BME280;32161;48.148;-1.554;2022-07-29T12:28:26;101101.31;;;32.45;39.67
46464;BME280;32161;48.148;-1.554;2022-07-29T12:30:57;101121.28;;;32.40;41.59
46464;BME280;32161;48.148;-1.554;2022-07-29T12:33:28;101120.28;;;32.32;40.20
46464;BME280;32161;48.148;-1.554;2022-07-29T12:35:58;101117.94;;;32.34;40.05
46464;BME280;32161;48.148;-1.554;2022-07-29T12:38:27;101110.16;;;32.28;40.16
46464;BME280;32161;48.148;-1.554;2022-07-29T12:40:55;101114.22;;;32.30;39.70
46464;BME280;32161;48.148;-1.554;2022-07-29T12:43:25;101118.38;;;32.37;41.12
46464;BME280;32161;48.148;-1.554;2022-07-29T12:45:54;101119.88;;;32.50;40.13
46464;BME280;32161;48.148;-1.554;2022-07-29T12:48:34;101126.41;;;32.54;39.62
46464;BME280;32161;48.148;-1.554;2022-07-29T12:51:07;101113.88;;;32.51;40.47
46464;BME280;32161;48.148;-1.554;2022-07-29T12:53:38;101114.72;;;32.52;39.85
46464;BME280;32161;48.148;-1.554;2022-07-29T12:56:14;101119.28;;;32.60;39.47
46464;BME280;32161;48.148;-1.554;2022-07-29T12:58:43;101116.03;;;32.58;38.85